Blackjack, Mississippi
Current Conditions -  °F | °C
As of 4:35 AM on Monday 22 Dec 2014 (Local Time) from KSTF Reporting Station
Haze Haze  
Wind Chill: 50°   Ceiling: 500
Heat Index: 50°   Visibility: 2mi
Dew Point: 48°   Wind: 6mph
Humidity: 94%   Direction: 140°SE
Pressure: 29.91"   Gusts: NA
Location:  33.4256°N, 88.8438°W
Report Text: KSTF 221035Z AUTO 14005KT 2SM BR OVC005 10/09 A2991 RMK AO2
Loading
Personal Weather Stations






























Interactive Weather Map New forecast layout! Learn more

10-Day Weather Forecast

Advertisements
Track Severe Weather on mobile